Tasinge Maersk — OUSX2 — position and weather

sailwx.info

Track history (hours):
 
Tides and Currents Weather Stations Pressure Air Temp Water Temp Dewpoint Dewpoint Depression Visibility Wind Speed Wind Dir Waves Ship Positions

Tasinge Maersk

Last reported at 2017-Jan-17 04:32 UTC. Time now 2017-Jan-17 04:53 UTC.
Position N 36°07' W 005°24'.

Length 191 m; draft 8.3 m.

Type: Ship (hazmat cat A). MMSI: 220157000.

Date/timePositionNaut miles runAvg speedWind from/ knotsBaromVisibWave heightAir tempDewpointWater temp
2017-Jan-17 04:32N 36°07' W 005°24'0 0.0
2017-Jan-17 03:32N 36°08' W 005°24'0 0.0
2017-Jan-17 02:32N 36°08' W 005°24'0 0.0
2017-Jan-17 01:32N 36°07' W 005°24'0 0.0
2017-Jan-17 00:32N 36°07' W 005°24'0 0.0
2017-Jan-16 23:32N 36°07' W 005°24'0 0.0
2017-Jan-16 22:17N 36°08' W 005°24'0 0.1
2017-Jan-16 21:32N 36°08' W 005°24'0 0.0
2017-Jan-16 20:26N 36°08' W 005°24'  
2017-Jan-12 09:31N 36°08' W 005°25'0 0.1
2017-Jan-12 08:31N 36°07' W 005°25'0 0.0
2017-Jan-11 21:13N 36°08' W 005°25'0 0.0
2017-Jan-11 19:31N 36°08' W 005°25'0 0.0
2017-Jan-11 16:07N 36°08' W 005°25'0 0.2
2017-Jan-11 15:22N 36°08' W 005°25'0 0.1
2017-Jan-11 14:31N 36°08' W 005°24'0 0.1
2017-Jan-11 13:28N 36°08' W 005°24'0 0.1
2017-Jan-11 12:28N 36°08' W 005°25'0 0.0
2017-Jan-11 10:07N 36°08' W 005°24'0 0.1
2017-Jan-11 09:28N 36°08' W 005°24'0 0.1
2017-Jan-11 08:28N 36°08' W 005°24'0 0.1
2017-Jan-11 07:31N 36°08' W 005°24'0 0.0
2017-Jan-11 06:31N 36°08' W 005°24'0 0.2
2017-Jan-11 05:31N 36°07' W 005°25'0 0.0
2017-Jan-11 04:31N 36°07' W 005°24'0 0.0
2017-Jan-11 03:31N 36°07' W 005°24'0 0.0
2017-Jan-11 02:31N 36°07' W 005°24'0 0.0
2017-Jan-11 01:31N 36°07' W 005°24'0 0.0
2017-Jan-11 00:31N 36°07' W 005°24'0 0.0
2017-Jan-10 23:31N 36°07' W 005°24'0 0.1
2017-Jan-10 22:31N 36°08' W 005°24'0 0.0
2017-Jan-10 21:31N 36°08' W 005°24'0 0.0
2017-Jan-10 20:31N 36°08' W 005°24'0 0.1
2017-Jan-10 19:31N 36°08' W 005°24'0 0.1
2017-Jan-10 18:28N 36°08' W 005°24'0 0.0
2017-Jan-10 17:33N 36°08' W 005°24'0 0.0
2017-Jan-10 16:33N 36°08' W 005°24'0 0.0
2017-Jan-10 15:33N 36°08' W 005°24'0 0.0
2017-Jan-10 14:33N 36°08' W 005°24'0 0.0
2017-Jan-10 13:34N 36°08' W 005°24'0 0.0
2017-Jan-10 12:33N 36°08' W 005°24'0 0.1
2017-Jan-10 11:33N 36°08' W 005°24'0 0.1
2017-Jan-10 10:33N 36°08' W 005°24'0 0.0
2017-Jan-10 09:33N 36°08' W 005°24'3 3.0
2017-Jan-10 08:33N 36°05' W 005°23'7 6.6
2017-Jan-10 07:33N 36°02' W 005°15'6 5.8
2017-Jan-10 06:33N 36°00' W 005°09'9 7.6
2017-Jan-10 05:24N 35°57' W 004°58'11 0.7
2017-Jan-09 12:33N 36°01' W 005°11'1111.3
2017-Jan-09 11:33N 35°58' W 005°25'6 0.4
2017-Jan-08 20:06N 35°54' W 005°30'43712.6
2017-Jan-07 09:30N 30°41' W 011°35'1112.1
2017-Jan-07 08:33N 30°32' W 011°43'1212.1
2017-Jan-07 07:34N 30°21' W 011°50'1211.8
2017-Jan-07 06:33N 30°12' W 011°58'1211.8
2017-Jan-07 05:33N 30°02' W 012°06'1211.6
2017-Jan-07 04:33N 29°52' W 012°13'  
Track history (hours):
 
Tides and Currents Weather Stations Pressure Air Temp Water Temp Dewpoint Dewpoint Depression Visibility Wind Speed Wind Dir Waves Ship Positions

Tasinge Maersk

Last reported at 2017-Jan-17 04:32 UTC. Time now 2017-Jan-17 04:53 UTC.
Position N 36°07' W 005°24'.

Length 191 m; draft 8.3 m.

Type: Ship (hazmat cat A). MMSI: 220157000.

Date/timePositionNaut miles runAvg speedWind from/ knotsBaromVisibWave heightAir tempDewpointWater temp
2017-Jan-17 04:32N 36°07' W 005°24'0 0.0
2017-Jan-17 03:32N 36°08' W 005°24'0 0.0
2017-Jan-17 02:32N 36°08' W 005°24'0 0.0
2017-Jan-17 01:32N 36°07' W 005°24'0 0.0
2017-Jan-17 00:32N 36°07' W 005°24'0 0.0
2017-Jan-16 23:32N 36°07' W 005°24'0 0.0
2017-Jan-16 22:17N 36°08' W 005°24'0 0.1
2017-Jan-16 21:32N 36°08' W 005°24'0 0.0
2017-Jan-16 20:26N 36°08' W 005°24'  
2017-Jan-12 09:31N 36°08' W 005°25'0 0.1
2017-Jan-12 08:31N 36°07' W 005°25'0 0.0
2017-Jan-11 21:13N 36°08' W 005°25'0 0.0
2017-Jan-11 19:31N 36°08' W 005°25'0 0.0
2017-Jan-11 16:07N 36°08' W 005°25'0 0.2
2017-Jan-11 15:22N 36°08' W 005°25'0 0.1
2017-Jan-11 14:31N 36°08' W 005°24'0 0.1
2017-Jan-11 13:28N 36°08' W 005°24'0 0.1
2017-Jan-11 12:28N 36°08' W 005°25'0 0.0
2017-Jan-11 10:07N 36°08' W 005°24'0 0.1
2017-Jan-11 09:28N 36°08' W 005°24'0 0.1
2017-Jan-11 08:28N 36°08' W 005°24'0 0.1
2017-Jan-11 07:31N 36°08' W 005°24'0 0.0
2017-Jan-11 06:31N 36°08' W 005°24'0 0.2
2017-Jan-11 05:31N 36°07' W 005°25'0 0.0
2017-Jan-11 04:31N 36°07' W 005°24'0 0.0
2017-Jan-11 03:31N 36°07' W 005°24'0 0.0
2017-Jan-11 02:31N 36°07' W 005°24'0 0.0
2017-Jan-11 01:31N 36°07' W 005°24'0 0.0
2017-Jan-11 00:31N 36°07' W 005°24'0 0.0
2017-Jan-10 23:31N 36°07' W 005°24'0 0.1
2017-Jan-10 22:31N 36°08' W 005°24'0 0.0
2017-Jan-10 21:31N 36°08' W 005°24'0 0.0
2017-Jan-10 20:31N 36°08' W 005°24'0 0.1
2017-Jan-10 19:31N 36°08' W 005°24'0 0.1
2017-Jan-10 18:28N 36°08' W 005°24'0 0.0
2017-Jan-10 17:33N 36°08' W 005°24'0 0.0
2017-Jan-10 16:33N 36°08' W 005°24'0 0.0
2017-Jan-10 15:33N 36°08' W 005°24'0 0.0
2017-Jan-10 14:33N 36°08' W 005°24'0 0.0
2017-Jan-10 13:34N 36°08' W 005°24'0 0.0
2017-Jan-10 12:33N 36°08' W 005°24'0 0.1
2017-Jan-10 11:33N 36°08' W 005°24'0 0.1
2017-Jan-10 10:33N 36°08' W 005°24'0 0.0
2017-Jan-10 09:33N 36°08' W 005°24'3 3.0
2017-Jan-10 08:33N 36°05' W 005°23'7 6.6
2017-Jan-10 07:33N 36°02' W 005°15'6 5.8
2017-Jan-10 06:33N 36°00' W 005°09'9 7.6
2017-Jan-10 05:24N 35°57' W 004°58'11 0.7
2017-Jan-09 12:33N 36°01' W 005°11'1111.3
2017-Jan-09 11:33N 35°58' W 005°25'6 0.4
2017-Jan-08 20:06N 35°54' W 005°30'43712.6
2017-Jan-07 09:30N 30°41' W 011°35'1112.1
2017-Jan-07 08:33N 30°32' W 011°43'1212.1
2017-Jan-07 07:34N 30°21' W 011°50'1211.8
2017-Jan-07 06:33N 30°12' W 011°58'1211.8
2017-Jan-07 05:33N 30°02' W 012°06'1211.6
2017-Jan-07 04:33N 29°52' W 012°13'  

Dump ship's entire track history